Time;durP1;ratioP1;P1;durP2;ratioP2;P2;SDS_P1;SDS_P2;PMS_P1;PMS_P2;Temp;Humidity;BMP_temperature;BMP_pressure;BME280_temperature;BME280_humidity;BME280_pressure;Samples;Min_cycle;Max_cycle;Signal;HPM_P1;HPM_P2
2023/09/26 00:00:44;;;;;;;11.10;5.10;;;;;;;18.75;39.52;100342.73;79570;1298;3013145;-66
2023/09/26 00:03:12;;;;;;;13.20;5.20;;;;;;;18.74;39.52;100340.84;79351;1295;3012980;-66
2023/09/26 00:05:40;;;;;;;14.20;5.40;;;;;;;18.73;39.75;100346.45;78398;1298;3051234;-65
2023/09/26 00:08:07;;;;;;;14.50;5.80;;;;;;;18.72;39.67;100347.09;79590;1295;3013051;-65
2023/09/26 00:10:35;;;;;;;18.50;6.50;;;;;;;18.70;39.96;100345.44;79624;1295;3011887;-65
2023/09/26 00:13:03;;;;;;;16.90;5.90;;;;;;;18.64;40.55;100344.91;78420;1298;3050338;-66
2023/09/26 00:15:30;;;;;;;24.50;6.00;;;;;;;18.57;40.77;100349.34;79681;1298;3013504;-65
2023/09/26 00:17:57;;;;;;;16.50;6.90;;;;;;;18.49;41.65;100350.17;79639;1298;3012817;-67
2023/09/26 00:20:27;;;;;;;15.90;6.70;;;;;;;18.39;41.95;100349.56;78518;1295;3051026;-66
2023/09/26 00:22:55;;;;;;;20.60;6.50;;;;;;;18.33;42.42;100350.73;79604;1298;3011811;-65
2023/09/26 00:25:24;;;;;;;18.40;7.10;;;;;;;18.28;42.51;100346.67;79104;1294;3011744;-65
2023/09/26 00:27:52;;;;;;;14.40;7.10;;;;;;;18.20;43.03;100348.95;79669;1294;3015240;-65
2023/09/26 00:30:20;;;;;;;16.50;7.40;;;;;;;18.12;43.30;100349.55;79557;1296;3011662;-65
2023/09/26 00:32:48;;;;;;;15.30;7.80;;;;;;;18.03;43.80;100347.21;78457;1298;3053483;-65
2023/09/26 00:35:15;;;;;;;16.80;7.50;;;;;;;17.98;44.34;100351.55;79482;1300;3013172;-65
2023/09/26 00:37:43;;;;;;;16.70;7.50;;;;;;;17.92;44.38;100349.65;79567;1298;3011787;-65
2023/09/26 00:40:15;;;;;;;16.40;7.90;;;;;;;17.85;44.46;100349.80;78126;1295;3049905;-65
2023/09/26 00:42:42;;;;;;;20.30;7.90;;;;;;;17.79;44.95;100347.46;79427;1295;3011637;-65
2023/09/26 00:45:11;;;;;;;16.00;9.30;;;;;;;17.69;45.43;100349.30;78170;1295;3048816;-65
2023/09/26 00:47:41;;;;;;;24.00;9.40;;;;;;;17.65;45.37;100352.95;79442;1294;3013398;-65
2023/09/26 00:50:13;;;;;;;23.20;9.40;;;;;;;17.63;45.68;100353.62;78250;1295;3068278;-65
2023/09/26 00:52:47;;;;;;;23.80;10.10;;;;;;;17.56;46.68;100359.31;77349;1294;5902091;-66
2023/09/26 00:55:17;;;;;;;24.20;10.20;;;;;;;17.52;46.62;100359.42;78258;1295;3057609;-66
2023/09/26 00:57:44;;;;;;;25.80;11.50;;;;;;;17.45;47.05;100357.84;79510;1295;3013601;-65
2023/09/26 01:00:13;;;;;;;26.70;12.20;;;;;;;17.38;46.97;100355.85;79531;1298;3011857;-65
2023/09/26 01:02:41;;;;;;;25.80;12.70;;;;;;;17.28;47.95;100356.76;78270;1298;3052412;-66
2023/09/26 01:05:08;;;;;;;30.80;13.30;;;;;;;17.25;47.11;100357.48;79607;1298;3013176;-65
2023/09/26 01:07:35;;;;;;;35.40;13.00;;;;;;;17.22;47.68;100361.13;79552;1294;3011542;-65
2023/09/26 01:10:03;;;;;;;26.80;12.50;;;;;;;17.16;47.55;100355.04;78463;1295;3055201;-67
2023/09/26 01:12:32;;;;;;;27.30;13.00;;;;;;;17.13;47.45;100354.34;79621;1294;3013320;-65
2023/09/26 01:14:58;;;;;;;26.20;13.10;;;;;;;17.09;47.53;100356.02;79672;1295;3011763;-66
2023/09/26 01:17:30;;;;;;;25.80;12.90;;;;;;;17.06;47.42;100353.08;78523;1298;3052810;-66
2023/09/26 01:19:57;;;;;;;28.60;12.90;;;;;;;17.02;47.26;100353.38;79438;1297;3011491;-66
2023/09/26 01:22:28;;;;;;;25.80;11.30;;;;;;;16.95;47.21;100352.27;78487;1295;3069684;-67
2023/09/26 01:24:55;;;;;;;18.40;10.60;;;;;;;16.90;47.05;100351.58;79343;1295;3011471;-66
2023/09/26 01:27:23;;;;;;;19.80;10.50;;;;;;;16.88;47.00;100350.81;78903;1296;3011629;-66
2023/09/26 01:29:51;;;;;;;19.00;10.10;;;;;;;16.87;46.59;100352.69;79638;1295;3018545;-66
2023/09/26 01:32:17;;;;;;;22.00;9.70;;;;;;;16.86;46.20;100354.18;79601;1296;3011831;-66
2023/09/26 01:34:47;;;;;;;23.10;8.50;;;;;;;16.81;46.39;100354.51;78348;1298;3052679;-66
2023/09/26 01:37:13;;;;;;;21.70;8.80;;;;;;;16.79;46.06;100353.80;79692;1295;3013261;-65
2023/09/26 01:39:40;;;;;;;19.70;9.20;;;;;;;16.78;46.04;100354.74;79441;1296;3011982;-65
2023/09/26 01:42:08;;;;;;;17.70;8.90;;;;;;;16.79;46.10;100357.65;78279;1295;3028702;-65
2023/09/26 01:44:34;;;;;;;15.50;7.70;;;;;;;16.79;45.82;100356.45;79602;1294;3013290;-65
2023/09/26 01:47:01;;;;;;;16.00;7.10;;;;;;;16.79;45.52;100356.61;79684;1295;3011941;-65
2023/09/26 01:49:30;;;;;;;19.30;7.40;;;;;;;16.78;45.27;100359.66;78506;1298;3026529;-65
2023/09/26 01:51:56;;;;;;;14.40;7.20;;;;;;;16.76;45.74;100355.20;79852;1298;3013782;-66
2023/09/26 01:54:23;;;;;;;16.20;7.20;;;;;;;16.74;45.84;100359.05;79774;1297;3011600;-66
2023/09/26 01:56:50;;;;;;;16.60;7.70;;;;;;;16.76;45.69;100360.86;78536;1295;3055464;-66
2023/09/26 01:59:17;;;;;;;19.20;7.30;;;;;;;16.74;45.54;100358.90;79884;1295;3019260;-66
2023/09/26 02:01:43;;;;;;;14.80;7.00;;;;;;;16.74;45.53;100358.91;79706;1295;3011787;-66
2023/09/26 02:04:12;;;;;;;20.00;7.20;;;;;;;16.74;45.56;100354.45;78526;1295;3028182;-66
2023/09/26 02:06:38;;;;;;;12.60;6.80;;;;;;;16.76;45.32;100357.69;79674;1295;3018588;-66
2023/09/26 02:09:05;;;;;;;17.00;6.60;;;;;;;16.75;45.06;100354.79;79721;1295;3013307;-66
2023/09/26 02:11:33;;;;;;;12.30;6.20;;;;;;;16.73;45.28;100358.09;78387;1295;3025964;-65
2023/09/26 02:13:59;;;;;;;21.40;6.00;;;;;;;16.72;45.18;100356.90;79653;1295;3013347;-64
2023/09/26 02:16:26;;;;;;;11.40;6.10;;;;;;;16.75;44.80;100355.46;79382;1295;3013054;-67
2023/09/26 02:18:53;;;;;;;13.40;5.80;;;;;;;16.80;44.73;100356.68;78468;1298;3027207;-66
2023/09/26 02:21:20;;;;;;;16.20;5.70;;;;;;;16.84;44.38;100353.40;79471;1296;3012841;-66
2023/09/26 02:23:47;;;;;;;14.30;5.70;;;;;;;16.87;44.39;100352.67;79515;1295;3011659;-67
2023/09/26 02:26:18;;;;;;;12.00;4.90;;;;;;;16.90;44.14;100358.66;78317;1295;3057531;-66
2023/09/26 02:28:45;;;;;;;13.00;5.20;;;;;;;16.92;44.12;100355.88;79525;1294;3012669;-70
2023/09/26 02:31:16;;;;;;;13.20;5.40;;;;;;;16.91;44.46;100355.79;78449;1297;3025525;-65
2023/09/26 02:33:42;;;;;;;12.10;4.60;;;;;;;16.91;44.19;100354.89;79543;1298;3012010;-65
2023/09/26 02:36:11;;;;;;;15.70;5.50;;;;;;;16.89;43.99;100355.56;79212;1295;3013489;-65
2023/09/26 02:38:38;;;;;;;11.80;4.80;;;;;;;16.88;44.56;100353.69;79737;1295;3019128;-65
2023/09/26 02:41:04;;;;;;;11.70;4.60;;;;;;;16.87;44.23;100354.22;79641;1297;3011893;-66
2023/09/26 02:43:32;;;;;;;16.00;5.60;;;;;;;16.85;44.52;100358.26;78500;1295;3027704;-66
2023/09/26 02:45:59;;;;;;;17.40;5.00;;;;;;;16.85;44.58;100358.48;79838;1297;3013087;-66
2023/09/26 02:48:25;;;;;;;13.30;4.80;;;;;;;16.87;44.30;100359.59;79566;1295;3013761;-65
2023/09/26 02:51:02;;;;;;;11.20;5.10;;;;;;;16.89;44.15;100363.30;78407;1298;3026202;-66
2023/09/26 02:53:30;;;;;;;13.70;5.10;;;;;;;16.88;44.21;100365.88;78384;1295;3053403;-67
2023/09/26 02:55:57;;;;;;;15.80;5.00;;;;;;;16.85;44.14;100367.81;79733;1295;3013320;-66
2023/09/26 02:58:23;;;;;;;11.00;5.50;;;;;;;16.85;44.25;100366.27;79611;1296;3011597;-67
2023/09/26 03:00:52;;;;;;;17.50;4.50;;;;;;;16.85;44.19;100368.75;78346;1295;3027416;-67
2023/09/26 03:03:19;;;;;;;12.40;5.50;;;;;;;16.84;44.30;100370.22;79480;1301;3013406;-65
2023/09/26 03:05:51;;;;;;;9.00;4.80;;;;;;;16.82;44.28;100368.08;79457;1295;3011700;-66
2023/09/26 03:47:01;;;;;;;17.20;7.50;;;;;;;15.72;50.90;100412.92;78177;1294;3071725;-66
2023/09/26 03:49:34;;;;;;;19.30;7.70;;;;;;;15.61;51.39;100418.09;78307;1300;3052699;-66
2023/09/26 03:52:01;;;;;;;16.10;7.50;;;;;;;15.52;51.59;100419.79;79538;1295;3011496;-65
2023/09/26 03:54:30;;;;;;;19.80;7.30;;;;;;;15.41;51.75;100424.35;78958;1295;3011624;-66
2023/09/26 03:56:56;;;;;;;17.30;6.80;;;;;;;15.34;51.49;100424.65;79550;1298;3013001;-66
2023/09/26 03:59:23;;;;;;;13.40;7.00;;;;;;;15.32;51.20;100425.30;79403;1300;3012869;-66
2023/09/26 04:01:51;;;;;;;14.80;6.50;;;;;;;15.32;51.16;100426.39;78218;1295;3026663;-66
2023/09/26 04:04:17;;;;;;;18.10;8.00;;;;;;;15.38;50.42;100431.80;79543;1301;3012557;-66
2023/09/26 04:06:44;;;;;;;19.20;10.30;;;;;;;15.39;50.17;100433.80;79484;1300;3011933;-65
2023/09/26 04:09:12;;;;;;;25.90;9.80;;;;;;;15.40;49.90;100436.44;78096;1295;3026303;-65
2023/09/26 04:11:38;;;;;;;19.90;10.10;;;;;;;15.38;49.61;100437.28;79586;1295;3013368;-66
2023/09/26 04:14:05;;;;;;;22.30;10.20;;;;;;;15.39;49.32;100438.63;79643;1296;3011523;-67
2023/09/26 04:16:33;;;;;;;24.80;10.50;;;;;;;15.31;49.25;100440.23;78443;1298;3025991;-67
2023/09/26 04:19:00;;;;;;;25.50;11.60;;;;;;;15.34;49.11;100440.20;79611;1295;3012863;-67
2023/09/26 04:21:26;;;;;;;28.30;12.40;;;;;;;15.35;49.08;100440.28;79610;1295;3012970;-65
2023/09/26 04:23:54;;;;;;;25.10;11.10;;;;;;;15.29;49.07;100439.63;78386;1295;3028939;-67
2023/09/26 04:26:23;;;;;;;22.70;12.00;;;;;;;15.27;48.96;100439.54;79609;1295;3018595;-68
2023/09/26 04:28:49;;;;;;;22.10;10.40;;;;;;;15.20;49.12;100442.30;79516;1298;3011569;-66
2023/09/26 04:31:18;;;;;;;24.80;9.20;;;;;;;15.26;49.08;100441.91;78350;1298;3053146;-66
2023/09/26 04:33:45;;;;;;;25.40;9.30;;;;;;;15.28;48.51;100441.77;79591;1296;3013843;-65
2023/09/26 04:36:15;;;;;;;21.70;10.00;;;;;;;15.37;48.66;100445.64;79042;1295;3011854;-65
2023/09/26 04:38:41;;;;;;;21.90;9.50;;;;;;;15.39;48.45;100444.45;79728;1296;3013146;-66
2023/09/26 04:41:08;;;;;;;23.00;10.60;;;;;;;15.48;48.46;100447.21;79632;1295;3013032;-65
2023/09/26 04:43:36;;;;;;;23.90;9.80;;;;;;;15.57;48.33;100445.94;78383;1298;3025129;-65
2023/09/26 04:46:09;;;;;;;21.80;9.90;;;;;;;15.63;48.28;100449.06;79699;1298;3013336;-66
2023/09/26 04:48:39;;;;;;;28.30;8.80;;;;;;;15.68;48.38;100450.69;78404;1295;3068965;-66
2023/09/26 04:51:09;;;;;;;23.20;9.80;;;;;;;15.75;48.33;100456.75;79593;1295;3012956;-66
2023/09/26 04:53:37;;;;;;;19.70;9.10;;;;;;;15.83;48.33;100455.92;78580;1295;3049200;-66
2023/09/26 04:56:04;;;;;;;21.30;10.10;;;;;;;15.90;47.90;100456.65;79577;1298;3012978;-66
2023/09/26 04:58:32;;;;;;;29.50;9.10;;;;;;;15.95;48.21;100455.65;79625;1298;3011867;-65
2023/09/26 05:01:10;;;;;;;22.60;8.70;;;;;;;16.04;48.12;100456.95;78367;1296;3052148;-66
2023/09/26 05:03:39;;;;;;;20.80;8.80;;;;;;;16.13;47.61;100460.05;78426;1298;3070188;-68
2023/09/26 05:06:07;;;;;;;21.00;7.70;;;;;;;16.20;47.66;100461.88;79621;1296;3013856;-66
2023/09/26 05:08:34;;;;;;;23.50;8.20;;;;;;;16.27;47.74;100463.70;79646;1295;3011541;-68
2023/09/26 05:11:01;;;;;;;18.40;7.90;;;;;;;16.33;47.60;100465.04;78355;1295;3054002;-68
2023/09/26 05:13:28;;;;;;;32.00;8.00;;;;;;;16.40;47.31;100471.48;79554;1295;3018545;-68
2023/09/26 05:15:55;;;;;;;15.80;7.70;;;;;;;16.47;47.66;100473.50;79592;1295;3011655;-67
2023/09/26 05:18:23;;;;;;;22.50;7.70;;;;;;;16.53;47.29;100477.77;78433;1298;3069976;-66
2023/09/26 05:20:50;;;;;;;14.80;7.00;;;;;;;16.58;47.02;100470.38;79717;1295;3020773;-65
2023/09/26 05:23:16;;;;;;;19.30;6.70;;;;;;;16.66;46.87;100473.77;79587;1295;3011630;-66
2023/09/26 05:25:44;;;;;;;19.20;7.30;;;;;;;16.77;46.92;100479.52;78299;1296;3027771;-65
2023/09/26 05:28:10;;;;;;;24.00;6.90;;;;;;;16.85;46.75;100475.41;79694;1296;3018755;-66
2023/09/26 05:30:37;;;;;;;15.50;6.80;;;;;;;16.94;46.58;100473.08;79576;1295;3011613;-65
2023/09/26 05:33:05;;;;;;;20.30;7.60;;;;;;;17.03;46.52;100472.41;78392;1298;3027080;-66
2023/09/26 05:35:32;;;;;;;17.10;6.80;;;;;;;17.12;46.42;100473.02;79618;1294;3018360;-65
2023/09/26 05:37:58;;;;;;;16.60;6.30;;;;;;;17.21;45.86;100477.17;79623;1294;3011805;-65
2023/09/26 05:40:26;;;;;;;10.70;5.30;;;;;;;17.31;45.43;100478.70;78349;1295;3027469;-65
2023/09/26 05:42:53;;;;;;;14.00;5.40;;;;;;;17.41;45.13;100476.04;79545;1298;3014850;-63
2023/09/26 05:45:19;;;;;;;14.40;5.50;;;;;;;17.51;45.16;100475.87;79576;1298;3011578;-65
2023/09/26 05:47:47;;;;;;;14.10;6.20;;;;;;;17.60;45.21;100476.77;78303;1296;3027536;-65
2023/09/26 05:50:14;;;;;;;13.80;5.60;;;;;;;17.70;45.32;100475.72;79693;1295;3013617;-65
2023/09/26 05:52:41;;;;;;;14.90;5.90;;;;;;;17.78;45.00;100476.48;79594;1298;3011733;-66
2023/09/26 05:55:09;;;;;;;13.50;4.90;;;;;;;17.86;44.54;100476.75;78327;1295;3026398;-66
2023/09/26 05:57:36;;;;;;;19.60;5.50;;;;;;;17.94;44.71;100476.21;79407;1298;3012905;-65
2023/09/26 06:00:05;;;;;;;20.60;5.30;;;;;;;18.04;44.53;100474.08;79570;1295;3011809;-65
2023/09/26 06:02:39;;;;;;;22.50;5.80;;;;;;;18.16;44.00;100472.66;78288;1298;3068706;-66
2023/09/26 06:05:06;;;;;;;19.30;5.90;;;;;;;18.23;43.51;100474.95;79647;1298;3011328;-65
2023/09/26 06:07:33;;;;;;;13.60;5.50;;;;;;;18.30;43.53;100475.80;79809;1298;3011396;-66
2023/09/26 06:10:01;;;;;;;22.90;6.80;;;;;;;18.40;43.35;100479.64;78549;1300;3025941;-65
2023/09/26 06:12:28;;;;;;;20.70;5.80;;;;;;;18.49;42.93;100479.34;80064;1298;3013450;-66
2023/09/26 06:14:55;;;;;;;19.40;7.00;;;;;;;18.55;43.05;100480.12;79846;1294;3011956;-65
2023/09/26 06:17:23;;;;;;;22.70;5.70;;;;;;;18.65;43.20;100477.34;78735;1295;3068905;-65
2023/09/26 06:19:49;;;;;;;13.80;5.70;;;;;;;18.74;43.37;100476.66;79667;1295;3012965;-65
2023/09/26 06:22:16;;;;;;;20.30;5.50;;;;;;;18.83;43.28;100478.45;79600;1298;3011538;-65
2023/09/26 06:24:44;;;;;;;12.20;5.40;;;;;;;18.91;43.14;100479.95;78231;1295;3028135;-65
2023/09/26 06:27:11;;;;;;;20.00;6.30;;;;;;;18.98;43.33;100480.48;79459;1298;3014043;-65
2023/09/26 06:29:41;;;;;;;14.30;5.40;;;;;;;19.09;43.18;100481.58;79631;1295;3011656;-65
2023/09/26 06:32:10;;;;;;;22.70;5.70;;;;;;;19.17;42.75;100479.84;78182;1295;3068448;-66
2023/09/26 06:34:39;;;;;;;11.30;5.40;;;;;;;19.24;42.89;100482.27;79672;1295;3014664;-66
2023/09/26 06:37:07;;;;;;;16.00;5.60;;;;;;;19.30;42.95;100483.59;79835;1294;3048952;-65
2023/09/26 06:39:33;;;;;;;18.90;5.70;;;;;;;19.36;42.79;100485.39;79595;1299;3018609;-66
2023/09/26 06:42:00;;;;;;;11.90;5.30;;;;;;;19.48;42.77;100486.96;79645;1299;3013720;-66
2023/09/26 06:44:28;;;;;;;20.20;5.30;;;;;;;19.61;42.66;100486.41;78260;1301;3026481;-66
2023/09/26 06:46:55;;;;;;;15.40;5.10;;;;;;;19.74;42.21;100488.87;79624;1298;3013518;-63
2023/09/26 06:49:21;;;;;;;19.10;6.20;;;;;;;19.85;41.92;100489.75;79574;1296;3011904;-67
2023/09/26 06:51:49;;;;;;;36.90;15.40;;;;;;;19.94;42.33;100486.20;78047;1301;3048412;-65
2023/09/26 06:54:16;;;;;;;37.90;13.70;;;;;;;19.97;42.59;100485.39;79841;1298;3012891;-65
2023/09/26 06:56:42;;;;;;;36.40;11.40;;;;;;;20.05;42.47;100484.38;79496;1298;3012604;-66
2023/09/26 06:59:10;;;;;;;38.90;9.00;;;;;;;20.12;42.50;100486.45;78240;1301;3029431;-65
2023/09/26 07:01:36;;;;;;;26.40;7.90;;;;;;;20.15;42.59;100482.48;79272;1295;3019332;-66
2023/09/26 07:04:04;;;;;;;24.50;7.30;;;;;;;20.20;42.51;100480.50;79510;1295;3013098;-66
2023/09/26 07:06:32;;;;;;;22.70;6.30;;;;;;;20.28;42.66;100475.49;78241;1301;3049990;-65
2023/09/26 07:09:00;;;;;;;24.30;6.20;;;;;;;20.34;42.33;100472.19;79694;1298;3013335;-66
2023/09/26 07:11:27;;;;;;;24.10;8.20;;;;;;;20.41;42.25;100476.30;79464;1299;3013401;-67
2023/09/26 07:13:55;;;;;;;20.10;6.90;;;;;;;20.52;42.23;100471.16;78223;1298;3051297;-63
2023/09/26 07:16:21;;;;;;;19.10;5.50;;;;;;;20.66;41.96;100469.61;79251;1301;3013365;-66
2023/09/26 07:18:48;;;;;;;18.40;6.00;;;;;;;20.71;41.97;100466.16;79455;1301;3011526;-65
2023/09/26 07:21:16;;;;;;;18.60;5.90;;;;;;;20.84;41.75;100464.52;78046;1300;3027875;-65
2023/09/26 07:23:42;;;;;;;18.80;5.50;;;;;;;20.94;41.57;100468.77;79245;1295;3019153;-65
2023/09/26 07:26:12;;;;;;;14.00;5.60;;;;;;;21.02;41.21;100466.83;79419;1298;3013286;-66
2023/09/26 07:28:40;;;;;;;21.50;6.10;;;;;;;21.10;40.82;100466.95;78428;1297;3053005;-65
2023/09/26 07:31:11;;;;;;;17.20;4.90;;;;;;;21.23;40.59;100468.83;79307;1298;3013800;-65
2023/09/26 07:33:39;;;;;;;23.90;5.50;;;;;;;21.34;40.50;100469.70;78918;1298;3013067;-66
2023/09/26 07:36:06;;;;;;;16.20;4.60;;;;;;;21.44;40.18;100467.66;79351;1297;3013249;-66
2023/09/26 07:38:33;;;;;;;19.50;5.20;;;;;;;21.56;39.43;100468.77;79391;1301;3011697;-66
2023/09/26 07:41:01;;;;;;;10.50;4.60;;;;;;;21.68;38.96;100466.48;78177;1298;3026158;-65
2023/09/26 07:43:32;;;;;;;17.30;4.90;;;;;;;21.79;38.61;100467.75;79320;1298;3013360;-67
2023/09/26 07:46:09;;;;;;;19.30;4.80;;;;;;;21.91;38.49;100470.19;78073;1301;3069502;-65
2023/09/26 07:48:38;;;;;;;16.10;5.40;;;;;;;22.06;38.77;100467.08;78278;1301;3052008;-66
2023/09/26 07:51:05;;;;;;;16.30;5.20;;;;;;;22.22;38.63;100460.42;79407;1298;3012824;-68
2023/09/26 07:53:31;;;;;;;15.50;5.10;;;;;;;22.38;37.98;100463.94;79660;1295;3013231;-63
2023/09/26 07:55:59;;;;;;;21.00;5.80;;;;;;;22.53;37.56;100461.83;78106;1301;3050208;-65
2023/09/26 07:58:26;;;;;;;18.70;6.20;;;;;;;22.64;37.25;100459.16;79291;1300;3018540;-65
2023/09/26 08:00:52;;;;;;;26.40;6.00;;;;;;;22.74;37.23;100458.18;79343;1301;3011398;-67
2023/09/26 08:03:21;;;;;;;25.20;5.60;;;;;;;22.84;37.04;100455.80;78244;1298;3027135;-65
2023/09/26 08:05:48;;;;;;;17.70;5.50;;;;;;;22.95;37.21;100456.89;79397;1301;3012773;-65
2023/09/26 08:08:15;;;;;;;19.10;5.60;;;;;;;23.05;37.16;100458.35;79460;1298;3011857;-66
2023/09/26 08:10:43;;;;;;;21.20;5.00;;;;;;;23.15;36.94;100457.08;78265;1301;3050190;-64
2023/09/26 08:13:09;;;;;;;12.20;4.70;;;;;;;23.25;36.41;100456.42;79518;1298;3013388;-65
2023/09/26 08:15:36;;;;;;;12.40;4.60;;;;;;;23.33;36.11;100455.04;79402;1301;3016191;-63
2023/09/26 08:18:04;;;;;;;18.60;5.60;;;;;;;23.42;36.13;100454.27;78048;1300;3027287;-68
2023/09/26 08:20:31;;;;;;;18.60;6.00;;;;;;;23.46;35.76;100457.64;79481;1297;3011603;-65
2023/09/26 08:22:57;;;;;;;19.00;7.20;;;;;;;23.52;35.96;100454.02;79515;1301;3011385;-65
2023/09/26 08:25:25;;;;;;;20.90;7.20;;;;;;;23.56;36.05;100452.54;78401;1302;3049423;-68
2023/09/26 08:27:52;;;;;;;19.90;7.50;;;;;;;23.63;35.98;100454.52;81950;1298;3018102;-67
2023/09/26 08:30:18;;;;;;;28.70;8.70;;;;;;;23.73;35.95;100452.84;81933;1300;3011248;-66
2023/09/26 08:32:46;;;;;;;19.80;8.10;;;;;;;23.83;35.91;100452.86;80657;1296;3026506;-66
2023/09/26 08:35:13;;;;;;;27.60;7.40;;;;;;;23.95;35.20;100451.91;81956;1297;3018057;-66
2023/09/26 08:37:40;;;;;;;25.60;8.80;;;;;;;24.07;34.71;100449.09;81930;1295;3011470;-67
2023/09/26 08:40:11;;;;;;;23.80;9.90;;;;;;;24.10;34.57;100452.99;80667;1295;3025137;-69
2023/09/26 08:42:40;;;;;;;24.50;9.00;;;;;;;24.15;34.58;100450.50;81949;1298;3011299;-65
2023/09/26 08:45:08;;;;;;;25.40;9.40;;;;;;;24.27;34.74;100450.23;80710;1297;3052837;-66
2023/09/26 08:47:39;;;;;;;32.60;10.50;;;;;;;24.35;34.38;100450.63;81869;1297;3012386;-68
2023/09/26 08:50:07;;;;;;;29.10;10.40;;;;;;;24.40;34.32;100448.54;80692;1296;3056142;-67
2023/09/26 08:52:34;;;;;;;28.70;10.70;;;;;;;24.42;34.03;100448.91;81956;1298;3011517;-68
2023/09/26 08:55:00;;;;;;;25.80;10.70;;;;;;;24.50;34.15;100444.60;81937;1297;3011126;-64
2023/09/26 08:57:28;;;;;;;22.80;10.60;;;;;;;24.57;34.09;100444.40;80714;1297;3026312;-67
2023/09/26 08:59:55;;;;;;;23.80;7.90;;;;;;;24.78;34.05;100439.55;81822;1299;3018944;-66
2023/09/26 09:02:21;;;;;;;20.30;7.60;;;;;;;24.89;33.57;100439.29;81917;1298;3011724;-66
2023/09/26 09:04:49;;;;;;;25.50;6.80;;;;;;;25.00;33.46;100436.13;80711;1295;3026649;-65
2023/09/26 09:07:15;;;;;;;14.30;6.20;;;;;;;25.13;32.92;100435.92;81969;1298;3011170;-65
2023/09/26 09:10:05;;;;;;;20.80;5.90;;;;;;;25.18;32.56;100434.15;81899;1298;3011333;-64
2023/09/26 09:12:37;;;;;;;18.90;5.60;;;;;;;25.21;32.24;100432.01;80668;1300;3052534;-66
2023/09/26 09:15:18;;;;;;;27.70;6.80;;;;;;;25.35;32.81;100429.39;81949;1298;3012999;-69
2023/09/26 09:17:46;;;;;;;17.30;6.60;;;;;;;25.50;32.53;100428.06;80683;1295;3050771;-67
2023/09/26 09:20:16;;;;;;;18.70;7.70;;;;;;;25.59;32.23;100423.95;81993;1298;3018211;-63
2023/09/26 09:22:48;;;;;;;18.70;6.40;;;;;;;25.73;32.37;100421.04;81417;1298;3011198;-63
2023/09/26 09:25:16;;;;;;;28.70;6.70;;;;;;;25.87;31.83;100419.34;81937;1297;3011265;-64
2023/09/26 09:27:43;;;;;;;23.00;6.00;;;;;;;25.94;31.80;100415.34;80638;1295;3026940;-66
2023/09/26 09:30:19;;;;;;;20.30;6.20;;;;;;;25.98;31.91;100415.72;81962;1298;3019260;-66
2023/09/26 09:32:46;;;;;;;15.50;5.30;;;;;;;26.06;31.66;100409.90;80681;1295;3069777;-64
2023/09/26 09:35:13;;;;;;;14.00;5.20;;;;;;;26.19;31.37;100408.86;81919;1295;3018238;-63
2023/09/26 09:37:45;;;;;;;14.00;4.90;;;;;;;26.31;30.97;100407.51;81972;1295;3011405;-67
2023/09/26 09:40:24;;;;;;;12.50;3.90;;;;;;;26.47;30.82;100406.70;80673;1297;3052071;-67
2023/09/26 09:42:51;;;;;;;7.70;3.50;;;;;;;26.62;29.92;100404.86;80683;1298;3050167;-66
2023/09/26 09:45:18;;;;;;;13.20;4.00;;;;;;;26.72;29.96;100401.20;81991;1297;3018713;-64
2023/09/26 09:47:45;;;;;;;9.30;3.80;;;;;;;26.84;29.66;100396.33;81889;1298;3011431;-68
2023/09/26 09:50:13;;;;;;;17.10;3.90;;;;;;;26.86;29.55;100393.66;80660;1295;3026342;-62
2023/09/26 09:52:44;;;;;;;13.20;4.00;;;;;;;26.97;28.98;100389.21;81942;1297;3012743;-64
2023/09/26 09:55:19;;;;;;;15.60;4.30;;;;;;;27.02;28.83;100391.33;80668;1298;3052586;-67
2023/09/26 09:57:51;;;;;;;10.80;3.90;;;;;;;27.05;28.35;100382.92;81414;1296;3011614;-67
2023/09/26 10:00:19;;;;;;;14.00;4.10;;;;;;;27.06;28.44;100387.06;81938;1298;3011136;-69
2023/09/26 10:02:47;;;;;;;15.80;4.40;;;;;;;27.15;28.32;100389.13;80682;1297;3026792;-64
2023/09/26 10:05:14;;;;;;;23.70;6.60;;;;;;;27.27;28.25;100383.61;81881;1298;3012411;-64
2023/09/26 10:07:42;;;;;;;9.80;3.60;;;;;;;27.33;28.26;100381.07;81957;1297;3011451;-64
2023/09/26 10:10:10;;;;;;;10.80;3.60;;;;;;;27.43;27.92;100382.59;80591;1295;3055956;-65
2023/09/26 10:12:39;;;;;;;14.40;3.20;;;;;;;27.49;27.51;100379.48;81873;1296;3011271;-65
2023/09/26 10:15:11;;;;;;;7.70;3.70;;;;;;;27.60;27.70;100379.73;81903;1295;3011532;-63
2023/09/26 10:17:40;;;;;;;18.20;3.90;;;;;;;27.66;27.50;100374.38;80703;1297;3053071;-64
2023/09/26 10:20:10;;;;;;;13.30;4.10;;;;;;;27.68;27.68;100371.59;81982;1298;3012678;-64
2023/09/26 10:22:41;;;;;;;15.80;3.60;;;;;;;27.85;27.41;100370.31;80703;1296;3051724;-67
2023/09/26 10:25:12;;;;;;;15.00;3.50;;;;;;;28.03;27.48;100366.88;81977;1295;3011364;-73
2023/09/26 10:27:46;;;;;;;9.40;3.40;;;;;;;28.05;26.84;100360.34;80625;1295;3049799;-68
2023/09/26 10:30:19;;;;;;;10.50;3.60;;;;;;;28.15;26.77;100365.55;81953;1295;3010966;-69
2023/09/26 10:32:46;;;;;;;15.90;3.40;;;;;;;28.22;26.91;100363.89;80703;1295;3050368;-69
2023/09/26 10:35:13;;;;;;;10.80;3.30;;;;;;;28.34;26.71;100364.96;81943;1297;3017996;-65
2023/09/26 10:37:40;;;;;;;11.30;3.20;;;;;;;28.31;26.84;100359.36;81908;1301;3012080;-68
2023/09/26 10:40:12;;;;;;;15.80;3.40;;;;;;;28.30;27.18;100354.97;80679;1297;3026584;-64
2023/09/26 10:42:42;;;;;;;52.90;3.60;;;;;;;28.39;26.73;100359.53;81943;1295;3011306;-66
2023/09/26 10:45:10;;;;;;;9.60;3.00;;;;;;;28.47;26.08;100351.90;80700;1298;3049698;-66
2023/09/26 10:47:38;;;;;;;13.50;3.00;;;;;;;28.61;26.17;100353.77;81925;1297;3018373;-68
2023/09/26 10:50:09;;;;;;;12.50;2.70;;;;;;;28.65;26.12;100350.77;81979;1297;3011387;-69
2023/09/26 10:52:40;;;;;;;11.00;2.40;;;;;;;28.50;25.93;100341.52;80723;1297;3052023;-69
2023/09/26 10:55:07;;;;;;;8.10;2.40;;;;;;;28.63;26.15;100349.41;81949;1298;3011114;-72
2023/09/26 10:57:37;;;;;;;5.90;2.10;;;;;;;28.78;25.55;100345.44;81478;1301;3011507;-73
2023/09/26 11:00:11;;;;;;;7.60;2.50;;;;;;;28.82;25.28;100343.48;82004;1295;3013216;-68
2023/09/26 11:02:41;;;;;;;7.30;2.50;;;;;;;28.83;25.41;100340.77;80718;1295;3053682;-69
2023/09/26 11:05:08;;;;;;;8.30;2.00;;;;;;;28.91;25.32;100340.16;81972;1298;3011495;-66
2023/09/26 11:07:37;;;;;;;7.40;2.60;;;;;;;29.07;24.74;100340.73;81486;1295;3011175;-68
2023/09/26 11:10:04;;;;;;;8.10;2.30;;;;;;;29.05;24.78;100335.30;82001;1297;3013141;-65
2023/09/26 11:12:33;;;;;;;9.10;2.40;;;;;;;29.15;24.05;100332.65;81980;1295;3011748;-69
2023/09/26 11:15:02;;;;;;;7.80;2.00;;;;;;;29.16;23.75;100327.63;80717;1295;3055991;-67
2023/09/26 11:17:31;;;;;;;7.20;2.20;;;;;;;29.30;23.90;100331.92;81997;1295;3011492;-70
2023/09/26 11:19:59;;;;;;;8.20;2.20;;;;;;;29.38;23.57;100321.67;81362;1297;3011328;-66
2023/09/26 11:22:26;;;;;;;5.90;2.00;;;;;;;29.49;23.32;100325.71;82013;1297;3012445;-66
2023/09/26 11:25:06;;;;;;;9.10;2.10;;;;;;;29.53;22.99;100321.95;81962;1298;3011827;-67
2023/09/26 11:27:41;;;;;;;7.80;2.00;;;;;;;29.60;22.88;100317.73;80707;1295;3068997;-68
2023/09/26 11:30:14;;;;;;;3.30;1.80;;;;;;;29.68;22.75;100317.45;81431;1297;3011479;-65
2023/09/26 11:32:41;;;;;;;10.80;2.20;;;;;;;29.77;22.72;100314.04;81965;1296;3011344;-69
2023/09/26 11:35:09;;;;;;;4.10;2.10;;;;;;;29.81;22.49;100318.40;80759;1295;3056448;-67
2023/09/26 11:37:36;;;;;;;5.20;2.10;;;;;;;29.72;22.55;100314.59;81933;1298;3018184;-66
2023/09/26 11:40:06;;;;;;;9.00;2.70;;;;;;;29.61;22.93;100321.57;81969;1298;3011596;-64
2023/09/26 11:42:41;;;;;;;13.20;2.30;;;;;;;29.76;22.55;100316.74;80691;1297;3052199;-69
2023/09/26 11:45:19;;;;;;;4.90;2.00;;;;;;;29.89;22.29;100313.06;81444;1295;3011226;-64